createdAt,value
2019-01-29T00:00:31.719Z,14.55
2019-01-29T00:03:00.364Z,15.55
2019-01-29T00:05:28.998Z,16.90
2019-01-29T00:07:57.401Z,18.62
2019-01-29T00:10:25.799Z,20.00
2019-01-29T00:12:54.192Z,21.07
2019-01-29T00:15:27.697Z,19.62
2019-01-29T00:17:56.098Z,19.40
2019-01-29T00:20:24.523Z,25.20
2019-01-29T00:22:52.916Z,19.85
2019-01-29T00:25:21.554Z,18.02
2019-01-29T00:27:50.202Z,16.87
2019-01-29T00:30:18.613Z,19.55
2019-01-29T00:32:47.009Z,24.43
2019-01-29T00:35:15.485Z,18.20
2019-01-29T00:37:44.205Z,14.38
2019-01-29T00:40:14.857Z,15.13
2019-01-29T00:42:43.298Z,18.32
2019-01-29T00:45:14.410Z,17.98
2019-01-29T00:47:42.826Z,14.40
2019-01-29T00:50:13.407Z,15.55
2019-01-29T00:52:42.428Z,13.62
2019-01-29T00:55:13.725Z,12.78
2019-01-29T00:57:42.199Z,15.00
2019-01-29T01:00:19.046Z,15.68
2019-01-29T01:02:55.309Z,14.25
2019-01-29T01:05:23.731Z,15.80
2019-01-29T01:07:52.177Z,14.95
2019-01-29T01:10:21.426Z,24.92
2019-01-29T01:12:50.129Z,21.90
2019-01-29T01:15:18.665Z,14.10
2019-01-29T01:17:47.052Z,18.95
2019-01-29T01:20:17.595Z,19.98
2019-01-29T01:22:51.152Z,20.25
2019-01-29T01:25:17.093Z,15.83
2019-01-29T01:27:45.488Z,18.45
2019-01-29T01:30:16.238Z,15.60
2019-01-29T01:32:44.710Z,16.23
2019-01-29T01:35:13.483Z,18.57
2019-01-29T01:37:42.017Z,17.65
2019-01-29T01:40:13.510Z,14.68
2019-01-29T01:42:41.936Z,18.12
2019-01-29T01:45:11.668Z,25.95
2019-01-29T01:47:40.316Z,14.18
2019-01-29T01:50:11.721Z,17.37
2019-01-29T01:52:40.201Z,14.18
2019-01-29T01:55:14.476Z,18.15
2019-01-29T01:57:42.907Z,13.20
2019-01-29T02:00:14.461Z,15.00
2019-01-29T02:02:43.184Z,21.05
2019-01-29T02:05:11.712Z,14.47
2019-01-29T02:07:40.124Z,17.70
2019-01-29T02:10:17.834Z,17.48
2019-01-29T02:12:46.244Z,18.82
2019-01-29T02:15:16.235Z,18.48
2019-01-29T02:17:44.635Z,14.15
2019-01-29T02:20:15.473Z,14.05
2019-01-29T02:22:43.939Z,10.90
2019-01-29T02:25:12.398Z,17.17
2019-01-29T02:27:41.100Z,17.73
2019-01-29T02:30:14.886Z,11.95
2019-01-29T02:32:43.330Z,15.95
2019-01-29T02:35:11.758Z,15.08
2019-01-29T02:37:40.187Z,12.50
2019-01-29T02:40:18.049Z,15.18
2019-01-29T02:42:46.547Z,12.70
2019-01-29T02:45:16.386Z,16.48
2019-01-29T02:47:44.792Z,18.17
2019-01-29T02:50:17.346Z,12.85
2019-01-29T02:52:45.738Z,21.48
2019-01-29T02:55:15.016Z,14.43
2019-01-29T02:57:43.493Z,18.55
2019-01-29T03:00:20.519Z,14.58
2019-01-29T03:02:48.969Z,16.65
2019-01-29T03:05:18.202Z,15.10
2019-01-29T03:07:47.060Z,17.42
2019-01-29T03:10:18.029Z,25.05
2019-01-29T03:12:46.417Z,18.80
2019-01-29T03:15:24.238Z,14.13
2019-01-29T03:17:52.674Z,15.88
2019-01-29T03:20:21.481Z,17.82
2019-01-29T03:22:50.187Z,16.25
2019-01-29T03:25:18.718Z,15.72
2019-01-29T03:27:47.127Z,12.30
2019-01-29T03:30:22.484Z,15.18
2019-01-29T03:32:50.924Z,14.25
2019-01-29T03:35:19.308Z,11.97
2019-01-29T03:37:47.785Z,15.98
2019-01-29T03:40:24.349Z,12.55
2019-01-29T03:42:52.894Z,11.97
2019-01-29T03:45:21.725Z,17.98
2019-01-29T03:47:50.193Z,13.68
2019-01-29T03:50:20.725Z,12.88
2019-01-29T03:52:49.533Z,13.95
2019-01-29T03:55:18.223Z,15.35
2019-01-29T03:57:46.614Z,19.30
2019-01-29T04:00:17.922Z,14.15
2019-01-29T04:02:46.480Z,8.78
2019-01-29T04:05:14.865Z,11.30
2019-01-29T04:07:43.595Z,14.98
2019-01-29T04:10:15.953Z,16.10
2019-01-29T04:12:45.780Z,12.03
2019-01-29T04:15:16.618Z,14.80
2019-01-29T04:17:45.273Z,8.13
2019-01-29T04:20:16.000Z,12.25
2019-01-29T04:22:45.845Z,12.63
2019-01-29T04:25:14.913Z,13.90
2019-01-29T04:27:43.637Z,9.80
2019-01-29T04:30:19.968Z,9.40
2019-01-29T04:32:48.357Z,8.65
2019-01-29T04:35:17.085Z,13.03
2019-01-29T04:37:45.481Z,12.65
2019-01-29T04:40:15.952Z,13.48
2019-01-29T04:42:44.389Z,11.57
2019-01-29T04:45:14.741Z,11.83
2019-01-29T04:47:43.202Z,11.00
2019-01-29T04:50:14.205Z,10.55
2019-01-29T04:52:42.610Z,16.15
2019-01-29T04:55:13.750Z,9.20
2019-01-29T04:57:42.333Z,10.72
2019-01-29T05:00:14.050Z,19.92
2019-01-29T05:02:42.691Z,10.48
2019-01-29T05:05:11.687Z,24.00
2019-01-29T05:07:40.081Z,10.50
2019-01-29T05:10:11.513Z,11.70
2019-01-29T05:12:40.163Z,20.25
2019-01-29T05:15:11.694Z,16.40
2019-01-29T05:17:40.329Z,11.57
2019-01-29T05:20:11.602Z,12.63
2019-01-29T05:22:40.227Z,12.55
2019-01-29T05:25:11.106Z,13.75
2019-01-29T05:27:39.584Z,12.50
2019-01-29T05:30:11.287Z,10.28
2019-01-29T05:32:39.754Z,15.32
2019-01-29T05:35:09.648Z,27.42
2019-01-29T05:37:38.310Z,14.50
2019-01-29T05:40:09.797Z,13.78
2019-01-29T05:42:38.190Z,12.90
2019-01-29T05:45:10.023Z,12.18
2019-01-29T05:47:38.428Z,10.53
2019-01-29T05:50:09.966Z,12.65
2019-01-29T05:52:38.394Z,14.33
2019-01-29T05:55:08.672Z,12.88
2019-01-29T05:57:37.194Z,13.43
2019-01-29T06:00:08.735Z,12.65
2019-01-29T06:02:37.142Z,11.70
2019-01-29T06:05:08.991Z,11.33
2019-01-29T06:07:37.446Z,10.13
2019-01-29T06:10:09.751Z,13.18
2019-01-29T06:12:38.373Z,12.85
2019-01-29T06:15:18.444Z,11.95
2019-01-29T06:17:47.100Z,11.88
2019-01-29T06:20:18.578Z,11.78
2019-01-29T06:22:47.455Z,15.00
2019-01-29T06:25:15.903Z,14.38
2019-01-29T06:27:44.370Z,13.90
2019-01-29T06:30:15.473Z,10.13
2019-01-29T06:32:43.958Z,11.30
2019-01-29T06:35:14.597Z,11.95
2019-01-29T06:37:43.007Z,15.78
2019-01-29T06:40:14.413Z,12.65
2019-01-29T06:42:42.820Z,10.63
2019-01-29T06:45:16.773Z,10.78
2019-01-29T06:47:45.326Z,13.45
2019-01-29T06:50:16.273Z,14.70
2019-01-29T06:52:44.729Z,14.83
2019-01-29T06:55:15.871Z,14.43
2019-01-29T06:57:44.394Z,14.95
2019-01-29T07:00:18.720Z,24.63
2019-01-29T07:02:47.694Z,24.15
2019-01-29T07:05:16.167Z,26.87
2019-01-29T07:07:44.560Z,24.57
2019-01-29T07:10:16.310Z,21.65
2019-01-29T07:12:44.885Z,19.70
2019-01-29T07:15:17.669Z,22.15
2019-01-29T07:17:47.462Z,22.70
2019-01-29T07:20:16.103Z,22.42
2019-01-29T07:22:44.742Z,26.40
2019-01-29T07:25:13.286Z,19.87
2019-01-29T07:27:41.682Z,23.05
2019-01-29T07:30:13.388Z,21.10
2019-01-29T07:32:41.793Z,23.15
2019-01-29T07:35:10.271Z,22.42
2019-01-29T07:37:38.674Z,30.48
2019-01-29T07:40:09.646Z,32.73
2019-01-29T07:42:38.090Z,24.90
2019-01-29T07:45:10.144Z,23.30
2019-01-29T07:47:38.545Z,18.40
2019-01-29T07:50:09.621Z,19.62
2019-01-29T07:52:38.089Z,17.07
2019-01-29T07:55:08.866Z,23.70
2019-01-29T07:57:37.261Z,25.55
2019-01-29T08:00:11.704Z,22.13
2019-01-29T08:02:40.120Z,25.00
2019-01-29T08:05:10.854Z,24.37
2019-01-29T08:07:39.251Z,16.17
2019-01-29T08:10:11.298Z,18.95
2019-01-29T08:12:39.686Z,22.25
2019-01-29T08:15:13.613Z,15.10
2019-01-29T08:17:42.254Z,18.90
2019-01-29T08:20:12.706Z,16.05
2019-01-29T08:22:41.349Z,22.55
2019-01-29T08:25:10.716Z,14.80
2019-01-29T08:27:39.226Z,16.95
2019-01-29T08:30:10.982Z,16.35
2019-01-29T08:32:39.641Z,16.77
2019-01-29T08:35:11.081Z,15.05
2019-01-29T08:37:39.494Z,11.85
2019-01-29T08:40:10.424Z,13.13
2019-01-29T08:42:38.825Z,14.58
2019-01-29T08:45:10.424Z,13.45
2019-01-29T08:47:38.813Z,12.53
2019-01-29T08:50:16.358Z,12.85
2019-01-29T08:52:44.996Z,9.93
2019-01-29T08:55:13.449Z,10.05
2019-01-29T08:57:41.854Z,14.80
2019-01-29T09:00:17.353Z,9.60
2019-01-29T09:02:47.846Z,12.95
2019-01-29T09:05:16.477Z,18.45
2019-01-29T09:07:44.875Z,13.62
2019-01-29T09:10:17.938Z,8.85
2019-01-29T09:12:46.598Z,11.33
2019-01-29T09:15:17.509Z,7.12
2019-01-29T09:17:46.409Z,9.58
2019-01-29T09:20:22.038Z,14.85
2019-01-29T09:22:50.674Z,10.10
2019-01-29T09:25:22.434Z,6.80
2019-01-29T09:27:49.323Z,5.35
2019-01-29T09:30:20.044Z,6.50
2019-01-29T09:32:48.846Z,9.20
2019-01-29T09:35:17.312Z,5.12
2019-01-29T09:37:45.701Z,6.90
2019-01-29T09:40:22.344Z,7.20
2019-01-29T09:42:51.042Z,6.50
2019-01-29T09:45:20.439Z,6.42
2019-01-29T09:47:49.082Z,4.87
2019-01-29T09:50:22.695Z,10.38
2019-01-29T09:52:51.625Z,8.43
2019-01-29T09:55:29.017Z,12.33
2019-01-29T09:57:52.154Z,4.75
2019-01-29T10:00:29.687Z,5.37
2019-01-29T10:02:58.176Z,6.58
2019-01-29T10:05:29.591Z,8.45
2019-01-29T10:07:58.282Z,6.30
2019-01-29T10:10:26.692Z,4.12
2019-01-29T10:12:55.744Z,5.03
2019-01-29T10:15:29.674Z,4.70
2019-01-29T10:17:58.299Z,4.87
2019-01-29T10:20:27.862Z,8.65
2019-01-29T10:22:56.521Z,3.67
2019-01-29T10:25:25.016Z,6.05
2019-01-29T10:27:53.428Z,5.37
2019-01-29T10:30:24.559Z,4.20
2019-01-29T10:32:53.031Z,5.85
2019-01-29T10:35:23.169Z,5.42
2019-01-29T10:37:51.637Z,4.50
2019-01-29T10:40:25.853Z,4.47
2019-01-29T10:42:55.702Z,4.65
2019-01-29T10:45:25.927Z,4.40
2019-01-29T10:47:54.338Z,7.60
2019-01-29T10:50:26.065Z,3.33
2019-01-29T10:52:54.705Z,6.95
2019-01-29T10:55:23.245Z,8.83
2019-01-29T10:57:51.799Z,6.35
2019-01-29T11:00:24.164Z,6.30
2019-01-29T11:02:53.094Z,7.00
2019-01-29T11:05:23.161Z,6.85
2019-01-29T11:07:51.546Z,6.22
2019-01-29T11:10:40.822Z,5.40
2019-01-29T11:13:09.243Z,8.28
2019-01-29T11:15:39.782Z,8.30
2019-01-29T11:18:10.884Z,7.00
2019-01-29T11:20:39.362Z,12.53
2019-01-29T11:23:07.856Z,7.70
2019-01-29T11:25:36.419Z,8.60
2019-01-29T11:28:05.252Z,5.08
2019-01-29T11:30:33.911Z,4.42
2019-01-29T11:33:02.885Z,7.20
2019-01-29T11:35:31.288Z,5.22
2019-01-29T11:37:59.807Z,7.40
2019-01-29T11:40:31.269Z,6.00
2019-01-29T11:43:00.175Z,6.75
2019-01-29T11:45:43.167Z,5.17
2019-01-29T11:48:11.595Z,6.77
2019-01-29T11:50:40.166Z,17.00
2019-01-29T11:53:08.642Z,6.00
2019-01-29T11:55:37.146Z,5.90
2019-01-29T11:58:06.087Z,6.53
2019-01-29T12:00:40.924Z,9.20
2019-01-29T12:03:09.409Z,13.03
2019-01-29T12:05:37.822Z,11.87
2019-01-29T12:08:06.845Z,6.40
2019-01-29T12:10:35.511Z,10.93
2019-01-29T12:13:05.007Z,5.80
2019-01-29T12:15:33.472Z,6.23
2019-01-29T12:18:01.877Z,7.97
2019-01-29T12:20:30.287Z,9.00
2019-01-29T12:22:58.883Z,5.33
2019-01-29T12:25:27.389Z,6.27
2019-01-29T12:27:56.043Z,4.67
2019-01-29T12:30:26.956Z,6.83
2019-01-29T12:32:56.914Z,6.17
2019-01-29T12:35:25.570Z,8.65
2019-01-29T12:37:53.979Z,7.33
2019-01-29T12:40:22.465Z,7.53
2019-01-29T12:42:50.961Z,10.88
2019-01-29T12:45:19.875Z,15.72
2019-01-29T12:47:48.510Z,8.15
2019-01-29T12:50:28.169Z,9.40
2019-01-29T12:53:00.875Z,10.48
2019-01-29T12:55:29.355Z,7.60
2019-01-29T12:57:57.903Z,7.05
2019-01-29T13:00:28.010Z,4.20
2019-01-29T13:02:56.441Z,5.35
2019-01-29T13:05:24.914Z,5.62
2019-01-29T13:07:53.334Z,6.10
2019-01-29T13:10:23.380Z,5.03
2019-01-29T13:12:52.143Z,6.10
2019-01-29T13:15:34.414Z,3.55
2019-01-29T13:18:03.060Z,4.83
2019-01-29T13:20:31.591Z,5.85
2019-01-29T13:22:59.991Z,5.35
2019-01-29T13:25:28.642Z,7.17
2019-01-29T13:27:57.136Z,7.05
2019-01-29T13:30:33.797Z,6.33
2019-01-29T13:33:02.276Z,4.53
2019-01-29T13:35:35.487Z,5.28
2019-01-29T13:38:04.442Z,5.42
2019-01-29T13:40:32.863Z,10.20
2019-01-29T13:43:01.264Z,5.00
2019-01-29T13:45:29.723Z,5.95
2019-01-29T13:47:58.387Z,4.95
2019-01-29T13:50:35.983Z,5.08
2019-01-29T13:53:05.130Z,5.65
2019-01-29T13:55:33.628Z,5.25
2019-01-29T13:58:02.156Z,11.00
2019-01-29T14:00:32.821Z,6.65
2019-01-29T14:03:02.001Z,7.72
2019-01-29T14:05:30.833Z,7.35
2019-01-29T14:07:59.286Z,6.67
2019-01-29T14:10:28.162Z,4.25
2019-01-29T14:12:56.551Z,5.42
2019-01-29T14:15:27.454Z,3.80
2019-01-29T14:17:55.933Z,8.73
2019-01-29T14:20:24.552Z,7.60
2019-01-29T14:22:52.942Z,5.53
2019-01-29T14:25:21.331Z,8.48
2019-01-29T14:27:49.746Z,7.15
2019-01-29T14:30:28.152Z,6.58
2019-01-29T14:32:56.778Z,5.60
2019-01-29T14:35:25.166Z,5.72
2019-01-29T14:38:11.666Z,6.33
2019-01-29T14:40:40.228Z,7.45
2019-01-29T14:43:12.026Z,7.50
2019-01-29T14:45:40.649Z,4.15
2019-01-29T14:48:09.073Z,5.83
2019-01-29T14:50:37.461Z,10.25
2019-01-29T14:53:05.869Z,6.95
2019-01-29T14:55:34.266Z,5.10
2019-01-29T14:58:02.891Z,7.53
2019-01-29T15:00:34.026Z,8.28
2019-01-29T15:03:02.422Z,6.10
2019-01-29T15:05:30.816Z,6.45
2019-01-29T15:07:59.350Z,8.38
2019-01-29T15:10:31.940Z,10.03
2019-01-29T15:13:00.405Z,7.65
2019-01-29T15:15:37.889Z,9.40
2019-01-29T15:18:14.259Z,7.55
2019-01-29T15:20:42.687Z,5.75
2019-01-29T15:23:11.435Z,6.85
2019-01-29T15:25:39.826Z,7.00
2019-01-29T15:28:08.286Z,6.70
2019-01-29T15:30:36.830Z,8.10
2019-01-29T15:33:05.858Z,8.15
2019-01-29T15:35:34.246Z,16.15
2019-01-29T15:38:02.642Z,6.92
2019-01-29T15:40:31.030Z,5.97
2019-01-29T15:42:59.425Z,10.25
2019-01-29T15:45:28.479Z,15.48
2019-01-29T15:47:56.856Z,8.00
2019-01-29T15:50:31.061Z,8.75
2019-01-29T15:52:59.893Z,5.90
2019-01-29T15:55:28.281Z,8.25
2019-01-29T15:57:56.753Z,10.82
2019-01-29T16:00:33.115Z,8.78
2019-01-29T16:03:01.670Z,7.40
2019-01-29T16:05:38.830Z,9.65
2019-01-29T16:08:12.429Z,9.13
2019-01-29T16:10:42.452Z,7.53
2019-01-29T16:13:10.849Z,5.10
2019-01-29T16:15:39.817Z,7.15
2019-01-29T16:18:08.613Z,8.23
2019-01-29T16:20:37.001Z,9.60
2019-01-29T16:23:05.737Z,11.03
2019-01-29T16:25:35.920Z,5.42
2019-01-29T16:28:04.385Z,9.18
2019-01-29T16:30:38.393Z,8.18
2019-01-29T16:33:07.241Z,9.15
2019-01-29T16:35:38.058Z,6.33
2019-01-29T16:38:08.331Z,7.65
2019-01-29T16:40:39.980Z,6.72
2019-01-29T16:43:08.690Z,11.30
2019-01-29T16:45:38.022Z,6.90
2019-01-29T16:48:07.857Z,9.60
2019-01-29T16:50:36.314Z,11.10
2019-01-29T16:53:06.353Z,11.15
2019-01-29T16:55:34.982Z,8.78
2019-01-29T16:58:03.919Z,13.70
2019-01-29T17:00:33.682Z,9.48
2019-01-29T17:03:02.151Z,9.45
2019-01-29T17:05:31.005Z,5.33
2019-01-29T17:08:00.040Z,6.28
2019-01-29T17:10:30.674Z,12.35
2019-01-29T17:12:59.310Z,6.70
2019-01-29T17:15:35.927Z,8.95
2019-01-29T17:18:06.443Z,7.28
2019-01-29T17:20:40.783Z,8.33
2019-01-29T17:23:10.582Z,8.28
2019-01-29T17:25:39.279Z,6.53
2019-01-29T17:28:07.685Z,7.30
2019-01-29T17:30:44.301Z,5.47
2019-01-29T17:33:15.612Z,7.85
2019-01-29T17:35:44.101Z,5.60
2019-01-29T17:38:14.382Z,7.85
2019-01-29T17:40:44.292Z,7.30
2019-01-29T17:43:13.054Z,6.58
2019-01-29T17:45:49.393Z,5.67
2019-01-29T17:48:18.022Z,6.10
2019-01-29T17:50:47.054Z,8.10
2019-01-29T17:53:15.688Z,8.13
2019-01-29T17:55:46.677Z,9.80
2019-01-29T17:58:15.796Z,4.90
2019-01-29T18:00:46.161Z,6.87
2019-01-29T18:03:14.559Z,4.62
2019-01-29T18:05:43.201Z,9.70
2019-01-29T18:08:11.885Z,4.28
2019-01-29T18:10:40.306Z,7.72
2019-01-29T18:13:08.957Z,5.40
2019-01-29T18:15:37.434Z,5.70
2019-01-29T18:18:06.201Z,5.95
2019-01-29T18:20:34.874Z,5.92
2019-01-29T18:23:05.751Z,5.92
2019-01-29T18:25:33.611Z,5.85
2019-01-29T18:28:02.069Z,8.90
2019-01-29T18:30:33.066Z,7.72
2019-01-29T18:33:01.466Z,5.90
2019-01-29T18:35:30.089Z,7.42
2019-01-29T18:37:58.802Z,6.30
2019-01-29T18:40:41.899Z,7.42
2019-01-29T18:43:10.315Z,6.80
2019-01-29T18:45:38.722Z,6.75
2019-01-29T18:48:07.335Z,7.25
2019-01-29T18:50:35.726Z,10.75
2019-01-29T18:53:08.998Z,10.38
2019-01-29T18:55:37.621Z,9.25
2019-01-29T18:58:11.883Z,4.50
2019-01-29T19:00:36.265Z,11.18
2019-01-29T19:03:05.099Z,8.25
2019-01-29T19:05:33.488Z,6.50
2019-01-29T19:08:01.903Z,8.35
2019-01-29T19:10:30.342Z,6.60
2019-01-29T19:12:58.723Z,5.35
2019-01-29T19:15:27.681Z,6.35
2019-01-29T19:17:56.078Z,6.55
2019-01-29T19:20:27.925Z,4.28
2019-01-29T19:22:56.321Z,4.30
2019-01-29T19:25:24.721Z,5.17
2019-01-29T19:27:53.169Z,9.58
2019-01-29T19:30:27.400Z,3.77
2019-01-29T19:32:55.868Z,8.73
2019-01-29T19:35:24.321Z,7.67
2019-01-29T19:37:52.945Z,7.12
2019-01-29T19:40:21.490Z,9.63
2019-01-29T19:42:50.117Z,4.62
2019-01-29T19:45:23.598Z,4.45
2019-01-29T19:47:51.984Z,9.53
2019-01-29T19:50:22.662Z,3.62
2019-01-29T19:52:51.890Z,14.05
2019-01-29T19:55:20.616Z,6.65
2019-01-29T19:57:49.081Z,7.85
2019-01-29T20:00:29.128Z,6.30
2019-01-29T20:02:57.586Z,4.53
2019-01-29T20:05:26.011Z,7.53
2019-01-29T20:07:54.409Z,7.95
2019-01-29T20:10:22.977Z,6.40
2019-01-29T20:12:51.702Z,8.83
2019-01-29T20:15:22.529Z,5.83
2019-01-29T20:17:52.161Z,6.85
2019-01-29T20:20:23.413Z,12.93
2019-01-29T20:22:51.801Z,6.08
2019-01-29T20:25:20.189Z,7.85
2019-01-29T20:27:48.590Z,16.55
2019-01-29T20:30:20.190Z,8.03
2019-01-29T20:32:53.393Z,11.00
2019-01-29T20:35:18.744Z,7.30
2019-01-29T20:37:47.141Z,12.93
2019-01-29T20:40:17.788Z,18.70
2019-01-29T20:42:46.194Z,13.45
2019-01-29T20:45:15.622Z,17.42
2019-01-29T20:47:44.261Z,19.87
2019-01-29T20:50:27.445Z,8.35
2019-01-29T20:52:55.846Z,13.13
2019-01-29T20:55:24.241Z,17.02
2019-01-29T20:57:52.649Z,13.22
2019-01-29T21:00:23.991Z,17.95
2019-01-29T21:02:52.387Z,11.80
2019-01-29T21:05:20.789Z,13.50
2019-01-29T21:07:50.052Z,19.37
2019-01-29T21:10:23.027Z,14.98
2019-01-29T21:12:51.542Z,18.87
2019-01-29T21:15:21.981Z,11.33
2019-01-29T21:17:50.513Z,14.93
2019-01-29T21:20:21.260Z,13.25
2019-01-29T21:22:49.718Z,11.10
2019-01-29T21:25:18.115Z,11.65
2019-01-29T21:27:46.515Z,12.53
2019-01-29T21:30:26.448Z,8.88
2019-01-29T21:32:54.857Z,15.85
2019-01-29T21:35:23.250Z,15.05
2019-01-29T21:37:51.783Z,10.18
2019-01-29T21:40:20.529Z,10.35
2019-01-29T21:42:48.996Z,9.80
2019-01-29T21:45:19.437Z,16.12
2019-01-29T21:47:48.673Z,9.05
2019-01-29T21:50:22.678Z,19.23
2019-01-29T21:52:51.079Z,15.28
2019-01-29T21:55:19.949Z,13.60
2019-01-29T21:57:48.350Z,12.20
2019-01-29T22:00:25.849Z,12.40
2019-01-29T22:02:54.340Z,10.88
2019-01-29T22:05:22.811Z,14.23
2019-01-29T22:07:51.211Z,11.60
2019-01-29T22:10:19.617Z,20.10
2019-01-29T22:12:48.010Z,10.18
2019-01-29T22:15:19.027Z,11.08
2019-01-29T22:17:47.648Z,9.20
2019-01-29T22:20:23.094Z,13.20
2019-01-29T22:22:51.485Z,10.10
2019-01-29T22:25:21.226Z,9.35
2019-01-29T22:27:49.885Z,14.90
2019-01-29T22:30:27.061Z,11.38
2019-01-29T22:32:55.534Z,14.93
2019-01-29T22:35:24.024Z,23.75
2019-01-29T22:37:52.457Z,13.25
2019-01-29T22:40:25.977Z,17.15
2019-01-29T22:42:54.440Z,14.75
2019-01-29T22:45:23.057Z,21.80
2019-01-29T22:47:51.452Z,20.37
2019-01-29T22:50:24.821Z,15.53
2019-01-29T22:52:53.216Z,11.83
2019-01-29T22:55:21.893Z,17.80
2019-01-29T22:57:50.281Z,15.20
2019-01-29T23:00:52.258Z,10.43
2019-01-29T23:03:29.464Z,10.43
2019-01-29T23:06:03.617Z,17.30
2019-01-29T23:08:32.013Z,17.50
2019-01-29T23:11:00.671Z,10.38
2019-01-29T23:13:29.373Z,11.60
2019-01-29T23:15:58.036Z,17.00
2019-01-29T23:18:26.657Z,19.20
2019-01-29T23:20:56.951Z,20.90
2019-01-29T23:23:25.386Z,10.78
2019-01-29T23:25:54.027Z,9.68
2019-01-29T23:28:22.429Z,9.33
2019-01-29T23:30:50.825Z,7.97
2019-01-29T23:33:19.221Z,11.33
2019-01-29T23:35:47.628Z,8.05
2019-01-29T23:38:16.505Z,9.15
2019-01-29T23:40:44.910Z,10.00
2019-01-29T23:43:13.317Z,7.20
2019-01-29T23:45:41.949Z,8.53
2019-01-29T23:48:10.358Z,8.55
2019-01-29T23:50:38.769Z,12.13
2019-01-29T23:53:07.194Z,7.85
2019-01-29T23:55:35.594Z,10.60
2019-01-29T23:58:05.093Z,10.35
